Time;durP1;ratioP1;P1;durP2;ratioP2;P2;SDS_P1;SDS_P2;PMS_P1;PMS_P2;Temp;Humidity;BMP_temperature;BMP_pressure;BME280_temperature;BME280_humidity;BME280_pressure;Samples;Min_cycle;Max_cycle;Signal;HPM_P1;HPM_P2
2022/05/03 00:00:53;;;;;;;8.93;7.30;;;10.00;99.90;;;;;;5132389;27;20234;-62
2022/05/03 00:03:24;;;;;;;10.80;7.50;;;9.90;99.90;;;;;;5132566;27;20203;-61
2022/05/03 00:06:00;;;;;;;8.97;6.60;;;9.90;99.90;;;;;;5132285;27;20211;-62
2022/05/03 00:08:36;;;;;;;9.43;7.30;;;9.90;99.90;;;;;;5135657;27;20630;-62
2022/05/03 00:11:10;;;;;;;9.47;7.20;;;9.80;99.90;;;;;;5136069;27;20227;-62
2022/05/03 00:13:43;;;;;;;11.53;7.83;;;9.70;99.90;;;;;;5136771;27;20290;-62
2022/05/03 00:16:11;;;;;;;9.47;6.37;;;9.60;99.90;;;;;;5136322;27;20198;-62
2022/05/03 00:18:37;;;;;;;12.60;6.67;;;9.60;99.90;;;;;;5136594;27;20202;-61
2022/05/03 00:21:04;;;;;;;9.83;6.73;;;9.50;99.90;;;;;;5136420;27;20220;-62
2022/05/03 00:23:32;;;;;;;9.90;6.77;;;9.50;99.90;;;;;;5136260;27;20199;-62
2022/05/03 00:26:00;;;;;;;11.80;7.40;;;9.40;99.90;;;;;;5136260;27;20211;-62
2022/05/03 00:28:27;;;;;;;10.13;7.00;;;9.40;99.90;;;;;;5136215;27;20275;-62
2022/05/03 00:30:56;;;;;;;9.93;7.10;;;9.30;99.90;;;;;;5136437;27;20220;-61
2022/05/03 00:33:24;;;;;;;9.20;6.80;;;9.40;99.90;;;;;;5136288;27;20622;-62
2022/05/03 00:35:51;;;;;;;11.73;7.87;;;9.30;99.90;;;;;;5136189;27;20204;-62
2022/05/03 00:38:17;;;;;;;13.73;7.57;;;9.30;99.90;;;;;;5135883;27;20204;-62
2022/05/03 00:40:53;;;;;;;9.20;6.60;;;9.20;99.90;;;;;;5136257;27;20284;-62
2022/05/03 00:43:26;;;;;;;10.67;7.80;;;9.20;99.90;;;;;;5135697;27;20228;-63
2022/05/03 00:45:58;;;;;;;11.43;7.77;;;9.10;99.90;;;;;;5135533;27;20259;-61
2022/05/03 00:48:40;;;;;;;13.93;6.63;;;9.00;99.90;;;;;;5136101;27;20222;-61
2022/05/03 00:51:14;;;;;;;9.97;7.20;;;8.90;99.90;;;;;;5135640;27;20248;-62
2022/05/03 00:53:58;;;;;;;9.77;6.93;;;9.00;99.90;;;;;;5135967;27;20210;-62
2022/05/03 00:56:34;;;;;;;12.13;6.80;;;8.90;99.90;;;;;;5135263;27;20206;-62
2022/05/03 00:59:16;;;;;;;12.63;7.80;;;8.90;99.90;;;;;;5135545;27;20229;-62
2022/05/03 01:01:54;;;;;;;10.27;7.03;;;9.00;99.90;;;;;;5135584;27;20207;-62
2022/05/03 01:04:25;;;;;;;10.73;6.77;;;9.00;99.90;;;;;;5135675;27;20230;-61
2022/05/03 01:07:01;;;;;;;12.13;6.93;;;9.00;99.90;;;;;;5134542;27;20747;-62
2022/05/03 01:09:34;;;;;;;12.40;7.30;;;9.00;99.90;;;;;;5135232;27;20230;-62
2022/05/03 01:12:17;;;;;;;9.57;6.80;;;9.00;99.90;;;;;;5135137;27;20212;-61
2022/05/03 01:14:56;;;;;;;10.37;6.50;;;9.00;99.90;;;;;;5135408;27;20203;-61
2022/05/03 01:17:32;;;;;;;9.67;7.27;;;9.00;99.90;;;;;;5134769;27;20245;-61
2022/05/03 01:20:04;;;;;;;12.73;7.10;;;9.00;99.90;;;;;;5134981;27;20289;-62
2022/05/03 01:23:11;;;;;;;9.33;6.77;;;8.90;99.90;;;;;;5135298;27;20227;-61
2022/05/03 01:26:08;;;;;;;10.03;6.93;;;8.80;99.90;;;;;;5132499;27;20203;-61
2022/05/03 01:28:55;;;;;;;12.50;6.93;;;8.60;99.90;;;;;;5135104;27;20226;-62
2022/05/03 01:31:24;;;;;;;9.23;6.77;;;8.50;99.90;;;;;;5135094;27;20577;-61
2022/05/03 01:33:51;;;;;;;9.43;7.10;;;8.60;99.90;;;;;;5134982;27;20665;-62
2022/05/03 01:36:31;;;;;;;12.70;7.23;;;8.60;99.90;;;;;;5134962;27;20207;-61
2022/05/03 01:39:05;;;;;;;11.40;7.37;;;8.60;99.90;;;;;;5135008;27;20202;-61
2022/05/03 01:41:42;;;;;;;8.43;6.63;;;8.50;99.90;;;;;;5135491;27;20199;-62
2022/05/03 01:44:21;;;;;;;9.87;7.27;;;8.60;99.90;;;;;;5135257;27;20252;-62
2022/05/03 01:46:53;;;;;;;10.80;7.30;;;8.60;99.90;;;;;;5134344;27;20274;-60
2022/05/03 01:52:42;;;;;;;10.70;6.57;;;8.50;99.90;;;;;;5134754;27;20197;-61
2022/05/03 01:55:24;;;;;;;8.40;6.70;;;8.50;99.90;;;;;;5134328;27;20211;-62
2022/05/03 01:58:03;;;;;;;9.87;7.00;;;8.50;99.90;;;;;;5134498;27;20244;-62
2022/05/03 02:00:35;;;;;;;11.87;7.83;;;8.50;99.90;;;;;;5134024;27;20751;-62
2022/05/03 02:03:07;;;;;;;11.40;7.23;;;8.40;99.90;;;;;;5134565;27;20630;-61
2022/05/03 02:05:53;;;;;;;11.63;7.27;;;8.40;99.90;;;;;;5134346;27;20211;-61
2022/05/03 02:08:22;;;;;;;10.87;7.60;;;8.30;99.90;;;;;;5134337;27;20261;-62
2022/05/03 02:10:59;;;;;;;9.93;7.30;;;8.30;99.90;;;;;;5134051;27;20259;-61
2022/05/03 02:16:45;;;;;;;10.23;6.97;;;8.20;99.90;;;;;;5134001;27;20719;-60
2022/05/03 02:19:23;;;;;;;11.93;7.93;;;8.20;99.90;;;;;;5134302;27;20203;-62
2022/05/03 02:21:55;;;;;;;10.60;7.80;;;8.20;99.90;;;;;;5134211;27;20342;-60
2022/05/03 02:24:36;;;;;;;9.00;6.87;;;8.10;99.90;;;;;;5133870;27;20211;-62
2022/05/03 02:27:09;;;;;;;10.03;6.90;;;8.00;99.90;;;;;;5133833;27;20199;-62
2022/05/03 02:29:44;;;;;;;10.50;7.27;;;8.00;99.90;;;;;;5132984;27;20268;-62
2022/05/03 02:32:16;;;;;;;10.77;7.27;;;7.90;99.90;;;;;;5134067;27;20574;-61
2022/05/03 02:34:47;;;;;;;14.10;7.37;;;7.90;1.00;;;;;;5133489;27;20203;-62
2022/05/03 02:37:18;;;;;;;11.63;7.77;;;7.90;1.00;;;;;;5133707;27;20207;-62
2022/05/03 02:39:52;;;;;;;12.40;8.23;;;7.80;1.00;;;;;;5133665;27;20226;-62
2022/05/03 02:42:20;;;;;;;12.00;7.47;;;7.80;1.00;;;;;;5133740;27;20241;-62
2022/05/03 02:44:48;;;;;;;14.80;7.57;;;7.80;1.00;;;;;;5133675;27;20619;-62
2022/05/03 02:47:29;;;;;;;12.47;7.53;;;7.70;1.00;;;;;;5132959;27;20199;-62
2022/05/03 02:50:04;;;;;;;15.50;7.33;;;7.70;30.90;;;;;;5133244;27;20731;-62
2022/05/03 02:52:47;;;;;;;11.40;7.30;;;7.70;99.90;;;;;;5134016;27;20202;-62
2022/05/03 02:55:21;;;;;;;9.90;7.47;;;7.60;99.90;;;;;;5133307;27;20207;-61
2022/05/03 02:57:55;;;;;;;14.47;8.07;;;7.50;99.90;;;;;;5133072;27;20252;-62
2022/05/03 03:03:20;;;;;;;10.93;7.40;;;7.50;99.90;;;;;;5133322;27;20202;-62
2022/05/03 03:05:53;;;;;;;9.00;6.50;;;7.50;99.90;;;;;;5133233;27;20594;-62
2022/05/03 03:08:21;;;;;;;11.63;7.33;;;7.40;99.90;;;;;;5133233;27;20211;-60
2022/05/03 03:10:52;;;;;;;9.87;7.03;;;7.40;1.00;;;;;;5132937;27;20245;-62
2022/05/03 03:13:28;;;;;;;11.20;7.70;;;7.40;1.00;;;;;;5133106;27;20202;-63
2022/05/03 03:15:55;;;;;;;11.77;7.73;;;7.30;1.00;;;;;;5132831;27;20255;-62
2022/05/03 03:18:26;;;;;;;9.77;6.60;;;7.30;1.00;;;;;;5132823;27;20199;-63
2022/05/03 03:20:56;;;;;;;11.13;7.90;;;7.30;1.00;;;;;;5132986;27;20238;-62
2022/05/03 03:23:28;;;;;;;10.90;7.37;;;7.30;1.00;;;;;;5132989;27;20210;-62
2022/05/03 03:25:55;;;;;;;14.43;8.07;;;7.20;14.70;;;;;;5132740;27;20212;-62
2022/05/03 03:28:23;;;;;;;10.73;7.30;;;7.20;97.00;;;;;;5132713;27;20215;-60
2022/05/03 03:30:52;;;;;;;13.40;8.40;;;7.10;99.90;;;;;;5132664;27;20577;-62
2022/05/03 03:33:19;;;;;;;14.43;7.73;;;7.00;99.90;;;;;;5132630;27;20744;-62
2022/05/03 03:35:49;;;;;;;10.83;7.37;;;6.90;1.00;;;;;;5132807;27;20269;-61
2022/05/03 03:38:16;;;;;;;11.77;7.97;;;6.90;99.90;;;;;;5132528;27;20206;-62
2022/05/03 03:40:46;;;;;;;12.47;7.60;;;6.90;99.90;;;;;;5132340;27;20225;-62
2022/05/03 03:43:13;;;;;;;12.63;7.33;;;6.80;1.00;;;;;;5132336;27;20264;-61
2022/05/03 03:45:41;;;;;;;9.73;7.37;;;6.70;99.90;;;;;;5132264;27;20211;-62
2022/05/03 03:48:09;;;;;;;12.00;8.30;;;6.70;53.30;;;;;;5132633;27;20231;-62
2022/05/03 03:50:39;;;;;;;11.27;7.80;;;6.70;1.00;;;;;;5132413;27;20810;-62
2022/05/03 03:53:07;;;;;;;12.13;8.33;;;6.80;1.00;;;;;;5132612;27;20241;-62
2022/05/03 03:55:35;;;;;;;11.50;7.57;;;6.80;1.00;;;;;;5132492;27;20694;-62
2022/05/03 03:58:03;;;;;;;9.20;6.80;;;6.90;1.00;;;;;;5131918;27;20216;-61
2022/05/03 04:00:30;;;;;;;10.77;7.80;;;6.90;99.90;;;;;;5132504;27;20224;-62
2022/05/03 04:02:58;;;;;;;12.07;8.10;;;6.90;99.90;;;;;;5132391;27;20266;-60
2022/05/03 04:05:26;;;;;;;12.43;7.80;;;6.90;99.90;;;;;;5132095;27;20238;-59
2022/05/03 04:07:53;;;;;;;13.40;7.97;;;6.90;99.90;;;;;;5131567;27;20232;-62
2022/05/03 04:10:21;;;;;;;10.60;6.70;;;6.90;99.90;;;;;;5131930;27;20306;-62
2022/05/03 04:12:48;;;;;;;12.63;7.97;;;6.80;99.90;;;;;;5131878;27;20591;-62
2022/05/03 04:15:15;;;;;;;11.10;7.40;;;6.80;99.90;;;;;;5132166;27;20740;-62
2022/05/03 04:17:42;;;;;;;11.80;7.30;;;6.80;99.90;;;;;;5131847;27;20721;-62
2022/05/03 04:20:10;;;;;;;11.40;7.13;;;6.90;64.80;;;;;;5132195;27;20278;-62
2022/05/03 04:22:37;;;;;;;10.73;7.60;;;6.80;1.00;;;;;;5132252;27;20266;-60
2022/05/03 04:25:05;;;;;;;12.27;7.37;;;6.90;99.90;;;;;;5131828;27;20231;-60
2022/05/03 04:27:33;;;;;;;10.10;6.87;;;6.90;99.90;;;;;;5131629;27;20647;-61
2022/05/03 04:30:01;;;;;;;10.57;6.30;;;6.90;99.90;;;;;;5131971;27;20229;-61
2022/05/03 04:32:29;;;;;;;10.40;7.30;;;6.90;1.00;;;;;;5132059;27;20204;-62
2022/05/03 04:34:56;;;;;;;11.47;6.77;;;6.90;1.00;;;;;;5131911;27;20295;-61
2022/05/03 04:37:23;;;;;;;10.20;7.43;;;6.90;99.90;;;;;;5131668;27;20206;-62
2022/05/03 04:39:50;;;;;;;10.87;6.47;;;7.00;1.00;;;;;;5131381;27;20787;-60
2022/05/03 04:42:17;;;;;;;10.90;7.27;;;7.00;99.90;;;;;;5131909;27;20201;-62
2022/05/03 04:44:45;;;;;;;9.57;6.60;;;7.00;1.00;;;;;;5131953;27;20205;-60
2022/05/03 04:47:11;;;;;;;11.20;7.00;;;7.00;99.90;;;;;;5131952;27;20274;-62
2022/05/03 04:49:38;;;;;;;10.80;6.57;;;7.00;99.90;;;;;;5131268;27;20277;-63
2022/05/03 04:52:06;;;;;;;11.03;6.90;;;7.00;99.90;;;;;;5131386;27;20646;-63
2022/05/03 04:54:33;;;;;;;12.83;7.20;;;7.00;99.90;;;;;;5135220;27;20217;-63
2022/05/03 04:57:02;;;;;;;11.20;7.10;;;7.10;99.90;;;;;;5135405;27;20205;-64
2022/05/03 04:59:29;;;;;;;9.03;6.70;;;7.20;99.90;;;;;;5135118;27;20222;-63
2022/05/03 05:01:57;;;;;;;10.03;6.20;;;7.20;99.90;;;;;;5135661;27;20202;-62
2022/05/03 05:04:24;;;;;;;12.13;7.33;;;7.30;99.90;;;;;;5135216;27;20565;-62
2022/05/03 05:06:51;;;;;;;9.53;6.63;;;7.30;99.90;;;;;;5135032;27;20260;-63
2022/05/03 05:09:18;;;;;;;9.97;6.90;;;7.40;99.90;;;;;;5135140;27;20229;-63
2022/05/03 05:11:44;;;;;;;9.20;6.40;;;7.40;99.90;;;;;;5135301;27;20300;-64
2022/05/03 05:14:11;;;;;;;9.23;6.57;;;7.50;98.80;;;;;;5135581;27;20267;-63
2022/05/03 05:16:38;;;;;;;9.77;6.70;;;7.50;81.40;;;;;;5134866;27;20283;-62
2022/05/03 05:19:06;;;;;;;12.60;6.80;;;7.60;27.70;;;;;;5135711;27;20270;-61
2022/05/03 05:21:32;;;;;;;10.43;5.87;;;7.60;1.00;;;;;;5134841;27;20206;-62
2022/05/03 05:24:00;;;;;;;8.47;5.80;;;7.50;1.00;;;;;;5135240;27;20206;-62
2022/05/03 05:26:27;;;;;;;9.97;6.57;;;7.50;1.00;;;;;;5134511;27;20214;-61
2022/05/03 05:28:54;;;;;;;9.87;5.87;;;7.50;1.00;;;;;;5135099;27;20230;-66
2022/05/03 05:31:20;;;;;;;10.10;5.83;;;7.60;1.00;;;;;;5134932;27;20261;-62
2022/05/03 05:33:47;;;;;;;9.80;5.87;;;7.60;1.00;;;;;;5134673;27;20210;-63
2022/05/03 05:36:15;;;;;;;8.57;6.00;;;7.70;99.90;;;;;;5109312;27;20212;-61
2022/05/03 05:38:42;;;;;;;7.70;6.07;;;7.70;99.90;;;;;;5113266;27;20268;-61
2022/05/03 05:41:13;;;;;;;8.17;5.43;;;7.90;99.90;;;;;;5113740;28;20227;-62
2022/05/03 05:43:40;;;;;;;8.67;5.83;;;8.00;99.90;;;;;;5113586;28;20246;-61
2022/05/03 05:46:07;;;;;;;7.47;5.70;;;8.00;99.90;;;;;;5113670;28;20211;-63
2022/05/03 05:48:34;;;;;;;6.60;4.77;;;8.10;99.90;;;;;;5113248;28;20269;-63
2022/05/03 05:51:01;;;;;;;11.43;5.77;;;8.30;99.90;;;;;;5113134;28;20738;-64
2022/05/03 05:53:33;;;;;;;7.27;5.20;;;8.30;99.90;;;;;;5113557;28;20848;-63
2022/05/03 05:56:01;;;;;;;9.00;5.43;;;8.30;99.90;;;;;;5113256;28;20215;-64
2022/05/03 05:58:28;;;;;;;8.50;5.50;;;8.30;99.90;;;;;;5113505;28;20280;-64
2022/05/03 06:00:56;;;;;;;5.67;5.00;;;8.30;99.90;;;;;;5113294;28;20288;-64
2022/05/03 06:03:22;;;;;;;7.80;4.50;;;8.30;99.90;;;;;;5113664;28;20566;-64
2022/05/03 06:05:51;;;;;;;8.03;5.17;;;8.40;99.90;;;;;;5112577;27;20210;-64
2022/05/03 06:08:17;;;;;;;7.47;4.67;;;8.40;99.90;;;;;;5123741;27;20203;-64
2022/05/03 06:10:46;;;;;;;7.50;4.67;;;8.50;99.90;;;;;;5133852;27;20761;-63
2022/05/03 06:13:15;;;;;;;7.67;5.10;;;8.50;99.90;;;;;;5133025;27;20209;-64
2022/05/03 06:15:42;;;;;;;9.40;5.03;;;8.50;99.90;;;;;;5133658;27;20211;-61
2022/05/03 06:18:09;;;;;;;7.03;4.83;;;8.60;99.90;;;;;;5133181;27;20207;-62
2022/05/03 06:20:37;;;;;;;7.57;5.30;;;8.70;99.90;;;;;;5133476;27;20701;-63
2022/05/03 06:23:04;;;;;;;12.97;5.30;;;8.80;99.90;;;;;;5133776;27;20294;-62
2022/05/03 06:25:31;;;;;;;6.37;4.20;;;8.90;99.90;;;;;;5133172;27;20557;-63
2022/05/03 06:27:59;;;;;;;7.57;4.67;;;9.10;99.90;;;;;;5133022;27;20215;-63
2022/05/03 06:30:26;;;;;;;8.03;4.77;;;9.20;99.90;;;;;;5133195;27;20235;-63
2022/05/03 06:32:52;;;;;;;5.93;4.10;;;9.30;99.90;;;;;;5133201;27;20639;-64
2022/05/03 06:35:21;;;;;;;6.47;4.43;;;9.30;99.90;;;;;;5133408;27;20199;-64
2022/05/03 06:37:47;;;;;;;11.23;4.70;;;9.50;99.90;;;;;;5132457;27;20211;-63
2022/05/03 06:40:14;;;;;;;6.57;4.13;;;9.60;99.90;;;;;;5132972;27;20856;-63
2022/05/03 06:42:41;;;;;;;8.90;4.53;;;9.60;99.90;;;;;;5132787;27;20203;-65
2022/05/03 06:45:11;;;;;;;5.47;4.00;;;9.80;99.90;;;;;;5133414;27;20212;-64
2022/05/03 06:47:39;;;;;;;8.10;4.43;;;9.90;99.90;;;;;;5132733;27;20279;-62
2022/05/03 06:50:07;;;;;;;5.87;4.43;;;10.00;99.90;;;;;;5132769;27;20239;-63
2022/05/03 06:52:34;;;;;;;5.10;3.93;;;10.00;99.90;;;;;;5133020;27;20211;-62
2022/05/03 06:55:00;;;;;;;7.17;3.97;;;10.00;98.30;;;;;;5135731;27;20205;-63
2022/05/03 06:57:28;;;;;;;5.50;4.10;;;10.00;86.20;;;;;;5135695;27;20210;-62
2022/05/03 06:59:54;;;;;;;6.50;3.63;;;10.10;87.40;;;;;;5133678;27;20276;-64
2022/05/03 07:02:22;;;;;;;6.97;3.57;;;10.20;75.70;;;;;;5132497;27;20201;-65
2022/05/03 07:04:49;;;;;;;8.73;4.27;;;10.40;83.10;;;;;;5132585;27;20671;-65
2022/05/03 07:07:16;;;;;;;6.53;4.10;;;10.60;82.70;;;;;;5131912;27;20671;-64
2022/05/03 07:09:43;;;;;;;6.53;4.00;;;10.70;75.10;;;;;;5132309;27;20243;-64
2022/05/03 07:12:11;;;;;;;6.60;4.23;;;10.80;75.10;;;;;;5131801;27;20214;-64
2022/05/03 07:14:38;;;;;;;6.13;4.00;;;10.90;60.70;;;;;;5132611;27;20369;-64
2022/05/03 07:17:05;;;;;;;11.23;4.43;;;10.90;61.40;;;;;;5131606;27;20202;-65
2022/05/03 07:25:02;;;;;;;6.77;4.10;;;11.00;55.00;;;;;;5131977;27;20204;-63
2022/05/03 07:27:29;;;;;;;8.23;4.77;;;11.20;58.00;;;;;;5131891;27;20304;-63
2022/05/03 07:29:56;;;;;;;6.47;3.63;;;11.30;55.60;;;;;;5132082;27;20261;-62
2022/05/03 07:32:23;;;;;;;7.63;4.30;;;11.50;67.40;;;;;;5132323;27;20266;-64
2022/05/03 07:34:52;;;;;;;5.33;4.37;;;11.40;61.40;;;;;;5132426;27;20287;-62
2022/05/03 07:37:19;;;;;;;9.47;4.20;;;11.60;57.20;;;;;;5131603;27;20212;-64
2022/05/03 07:39:45;;;;;;;5.27;3.60;;;11.80;53.90;;;;;;5132513;27;20251;-67
2022/05/03 07:42:12;;;;;;;9.13;5.33;;;12.00;56.60;;;;;;5131867;27;20199;-62
2022/05/03 07:44:39;;;;;;;4.90;3.27;;;12.20;58.40;;;;;;5132328;27;20198;-65
2022/05/03 07:47:06;;;;;;;6.10;4.00;;;12.30;54.50;;;;;;5131362;27;20293;-65
2022/05/03 07:49:33;;;;;;;3.57;2.73;;;12.00;46.30;;;;;;5131663;27;20275;-64
2022/05/03 07:52:01;;;;;;;5.50;4.10;;;12.10;42.40;;;;;;5132287;27;20213;-65
2022/05/03 07:54:27;;;;;;;5.70;3.67;;;12.20;49.00;;;;;;5131636;27;20551;-67
2022/05/03 07:56:54;;;;;;;5.67;3.60;;;12.30;47.00;;;;;;5131526;27;20572;-62
2022/05/03 07:59:23;;;;;;;6.23;3.70;;;12.40;47.00;;;;;;5131532;27;20570;-63
2022/05/03 08:01:50;;;;;;;3.50;2.13;;;12.50;43.60;;;;;;5131670;27;20221;-64
2022/05/03 08:04:16;;;;;;;3.20;2.80;;;12.40;36.30;;;;;;5131870;27;20203;-64
2022/05/03 08:06:43;;;;;;;6.03;3.20;;;12.40;37.20;;;;;;5131338;27;20207;-67
2022/05/03 08:09:11;;;;;;;4.83;2.90;;;12.70;42.20;;;;;;5133485;27;20234;-65
2022/05/03 08:11:38;;;;;;;4.93;2.73;;;12.80;38.20;;;;;;5131607;27;20271;-65
2022/05/03 08:14:05;;;;;;;4.97;2.60;;;12.90;36.10;;;;;;5132351;27;20210;-64
2022/05/03 08:16:32;;;;;;;3.40;2.57;;;13.10;36.30;;;;;;5131026;27;20298;-64
2022/05/03 08:18:59;;;;;;;4.63;3.07;;;13.20;39.80;;;;;;5131922;27;20240;-61
2022/05/03 08:21:26;;;;;;;10.83;4.53;;;13.10;35.50;;;;;;5132000;27;20203;-61
2022/05/03 08:23:52;;;;;;;4.40;2.50;;;13.20;39.60;;;;;;5131749;27;20214;-64
2022/05/03 08:26:20;;;;;;;5.67;3.03;;;13.30;36.50;;;;;;5131363;27;20236;-63
2022/05/03 08:28:47;;;;;;;7.70;3.23;;;13.20;34.90;;;;;;5133061;27;20208;-63
2022/05/03 08:31:14;;;;;;;4.00;2.70;;;13.40;37.20;;;;;;5135588;27;20231;-64
2022/05/03 08:33:41;;;;;;;8.60;3.47;;;13.60;37.50;;;;;;5136009;27;20234;-65
2022/05/03 08:36:08;;;;;;;2.80;2.30;;;13.70;37.10;;;;;;5134870;27;20226;-63
2022/05/03 08:44:04;;;;;;;3.80;1.90;;;13.90;40.70;;;;;;5135506;27;20207;-64
2022/05/03 08:46:32;;;;;;;3.97;2.03;;;13.70;30.00;;;;;;5134718;27;20252;-64
2022/05/03 08:49:02;;;;;;;3.83;2.50;;;13.50;26.50;;;;;;5135284;27;20749;-63
2022/05/03 08:51:31;;;;;;;2.13;1.70;;;13.60;27.90;;;;;;5135162;27;20745;-67
2022/05/03 08:53:59;;;;;;;3.03;1.97;;;13.50;26.20;;;;;;5135006;27;20256;-69
2022/05/03 08:56:27;;;;;;;2.70;1.80;;;13.80;29.60;;;;;;5135063;27;20229;-66
2022/05/03 08:58:54;;;;;;;2.80;1.80;;;14.10;34.10;;;;;;5135099;27;20212;-67
2022/05/03 09:01:21;;;;;;;4.47;1.77;;;14.20;36.50;;;;;;5135506;27;20306;-67
2022/05/03 09:03:48;;;;;;;2.73;1.60;;;14.40;34.00;;;;;;5135100;27;20255;-66
2022/05/03 09:06:15;;;;;;;3.90;1.70;;;14.60;36.10;;;;;;5134408;27;20210;-64
2022/05/03 09:08:42;;;;;;;2.23;1.63;;;14.40;28.70;;;;;;5134882;27;20210;-67
2022/05/03 09:11:15;;;;;;;4.40;1.60;;;14.20;28.40;;;;;;5134807;27;20233;-67
2022/05/03 09:13:44;;;;;;;4.73;2.23;;;14.30;31.20;;;;;;5135951;27;20781;-66
2022/05/03 09:16:12;;;;;;;4.77;1.80;;;14.40;31.00;;;;;;5135515;27;20213;-66
2022/05/03 09:18:40;;;;;;;2.27;1.70;;;14.50;34.60;;;;;;5135257;27;20690;-66
2022/05/03 09:24:06;;;;;;;38.70;21.13;;;14.60;34.70;;;;;;5134493;27;20580;-68
2022/05/03 09:26:33;;;;;;;3.10;2.47;;;14.60;32.30;;;;;;5136979;27;20253;-69
2022/05/03 09:29:05;;;;;;;2.70;1.90;;;14.70;32.60;;;;;;5135386;27;20222;-65
2022/05/03 09:31:34;;;;;;;4.10;2.10;;;14.90;32.50;;;;;;5134730;27;20236;-66
2022/05/03 09:34:04;;;;;;;2.77;2.00;;;14.90;30.20;;;;;;5134284;27;20211;-65
2022/05/03 09:36:43;;;;;;;2.73;2.17;;;15.20;34.20;;;;;;5134225;27;20202;-65
2022/05/03 09:39:20;;;;;;;2.80;1.93;;;15.20;37.50;;;;;;5133473;27;20209;-63
2022/05/03 09:42:04;;;;;;;2.73;2.10;;;15.00;32.10;;;;;;5134479;27;20262;-64
2022/05/03 09:44:36;;;;;;;3.00;2.30;;;15.10;33.60;;;;;;5134404;27;20290;-64
2022/05/03 09:47:07;;;;;;;2.90;2.30;;;15.20;36.50;;;;;;5133459;27;20275;-64
2022/05/03 09:49:36;;;;;;;6.47;2.83;;;15.30;36.40;;;;;;5134298;27;20223;-62
2022/05/03 09:52:04;;;;;;;3.93;2.30;;;15.40;34.30;;;;;;5134942;27;20218;-62
2022/05/03 09:54:46;;;;;;;3.33;2.60;;;15.50;36.50;;;;;;5135088;27;20915;-63
2022/05/03 09:57:17;;;;;;;3.37;2.73;;;15.60;37.30;;;;;;5133728;27;20303;-63
2022/05/03 09:59:47;;;;;;;3.63;2.67;;;15.60;35.60;;;;;;5134218;27;20226;-63
2022/05/03 10:02:15;;;;;;;3.07;2.43;;;15.50;36.10;;;;;;5134186;27;20729;-63
2022/05/03 10:04:42;;;;;;;4.27;2.20;;;15.60;35.50;;;;;;5133920;27;20890;-64
2022/05/03 10:07:09;;;;;;;4.23;2.70;;;15.70;41.10;;;;;;5133791;27;20211;-64
2022/05/03 10:09:36;;;;;;;2.83;2.43;;;15.80;38.90;;;;;;5133877;27;20276;-63
2022/05/03 10:12:04;;;;;;;5.53;2.93;;;15.80;36.70;;;;;;5134076;27;20214;-66
2022/05/03 10:14:32;;;;;;;2.83;2.37;;;15.90;39.80;;;;;;5133811;27;20693;-61
2022/05/03 10:22:37;;;;;;;5.07;2.70;;;16.20;46.10;;;;;;5134345;27;20680;-63
2022/05/03 10:25:04;;;;;;;5.17;2.87;;;16.00;37.70;;;;;;5134198;27;20311;-64
2022/05/03 10:27:32;;;;;;;4.43;3.40;;;16.10;41.50;;;;;;5132875;27;20213;-63
2022/05/03 10:30:17;;;;;;;7.10;2.97;;;16.20;44.20;;;;;;5133369;27;20223;-61
2022/05/03 10:32:45;;;;;;;6.60;3.40;;;16.10;42.00;;;;;;5133620;27;20203;-67
2022/05/03 10:35:34;;;;;;;4.93;3.33;;;16.20;40.00;;;;;;5133808;27;20213;-65
2022/05/03 10:38:06;;;;;;;5.07;3.17;;;16.40;40.20;;;;;;5132499;27;20690;-67
2022/05/03 10:40:39;;;;;;;6.97;3.50;;;16.30;39.60;;;;;;5133883;27;20701;-68
2022/05/03 10:43:10;;;;;;;5.77;3.43;;;16.30;41.70;;;;;;5133946;27;20692;-65
2022/05/03 10:45:52;;;;;;;4.77;3.30;;;15.80;36.40;;;;;;5133215;27;20252;-66
2022/05/03 10:48:31;;;;;;;5.60;3.77;;;16.10;40.20;;;;;;5133080;27;20641;-61
2022/05/03 10:50:59;;;;;;;15.07;4.40;;;16.40;45.50;;;;;;5132184;27;20226;-62
2022/05/03 10:53:31;;;;;;;3.90;3.00;;;16.60;46.80;;;;;;5133440;27;20207;-64
2022/05/03 10:56:19;;;;;;;6.10;3.60;;;16.80;49.30;;;;;;5132924;27;20269;-63
2022/05/03 10:59:15;;;;;;;5.50;3.50;;;16.90;46.80;;;;;;5133045;27;20253;-62
2022/05/03 11:02:10;;;;;;;7.30;3.70;;;16.80;44.50;;;;;;5132767;27;20550;-65
2022/05/03 11:05:16;;;;;;;5.47;3.97;;;16.80;47.40;;;;;;5112620;27;20204;-64
2022/05/03 11:08:08;;;;;;;6.53;4.17;;;16.90;49.70;;;;;;5112213;28;20652;-64
2022/05/03 11:10:41;;;;;;;3.90;3.40;;;16.90;47.80;;;;;;5111908;28;20231;-62
2022/05/03 11:13:42;;;;;;;6.30;4.30;;;16.90;43.20;;;;;;5111575;28;20211;-65
2022/05/03 11:16:20;;;;;;;6.47;3.57;;;16.90;45.70;;;;;;5111710;28;20208;-64
2022/05/03 11:18:47;;;;;;;3.20;2.60;;;17.00;44.40;;;;;;5112032;28;20623;-62
2022/05/03 11:21:16;;;;;;;7.73;4.10;;;16.90;42.20;;;;;;5112053;28;20644;-63
2022/05/03 11:23:49;;;;;;;5.70;4.20;;;16.60;38.40;;;;;;5125613;27;20271;-64
2022/05/03 11:26:16;;;;;;;4.10;3.67;;;16.40;36.80;;;;;;5131998;27;20211;-64
2022/05/03 11:28:46;;;;;;;4.60;3.90;;;16.30;35.40;;;;;;5132563;27;20742;-62
2022/05/03 11:31:15;;;;;;;5.20;3.93;;;16.40;38.50;;;;;;5132139;27;20230;-61
2022/05/03 11:33:52;;;;;;;4.43;3.83;;;16.60;40.60;;;;;;5133452;27;20210;-67
2022/05/03 11:36:21;;;;;;;6.43;4.23;;;16.60;38.10;;;;;;5132030;27;20552;-62
2022/05/03 11:38:49;;;;;;;5.63;4.00;;;16.80;37.70;;;;;;5132070;27;20674;-61
2022/05/03 11:41:16;;;;;;;6.37;4.10;;;16.90;42.80;;;;;;5132377;27;20250;-64
2022/05/03 11:43:42;;;;;;;5.40;4.33;;;16.70;37.60;;;;;;5131990;27;20202;-65
2022/05/03 11:46:10;;;;;;;5.97;4.30;;;16.90;44.30;;;;;;5131943;27;20250;-64
2022/05/03 11:48:36;;;;;;;6.70;4.07;;;16.60;34.70;;;;;;5131607;27;20211;-65
2022/05/03 11:56:37;;;;;;;5.23;4.17;;;16.60;35.10;;;;;;5131586;27;20202;-64
2022/05/03 11:59:05;;;;;;;6.83;4.53;;;16.80;43.40;;;;;;5132094;27;20244;-65
2022/05/03 12:01:34;;;;;;;7.43;5.17;;;17.20;46.30;;;;;;5131553;27;20218;-65
2022/05/03 12:04:02;;;;;;;11.20;4.33;;;17.40;49.80;;;;;;5132110;27;20209;-62
2022/05/03 12:06:34;;;;;;;9.33;4.37;;;17.40;43.50;;;;;;5131062;27;20207;-65
2022/05/03 12:09:03;;;;;;;7.03;5.10;;;17.10;41.60;;;;;;5131952;27;20210;-65
2022/05/03 12:11:30;;;;;;;7.67;5.20;;;16.70;35.90;;;;;;5130725;27;20219;-64
2022/05/03 12:13:57;;;;;;;5.43;4.00;;;16.70;34.30;;;;;;5131382;27;20249;-65
2022/05/03 12:16:27;;;;;;;5.83;4.80;;;17.10;40.40;;;;;;5131116;27;20207;-65
2022/05/03 12:18:55;;;;;;;6.53;4.50;;;17.40;47.20;;;;;;5131396;27;20207;-65
2022/05/03 12:21:26;;;;;;;6.00;4.83;;;17.60;49.10;;;;;;5131777;27;20219;-65
2022/05/03 12:23:59;;;;;;;7.70;5.07;;;17.80;46.40;;;;;;5131649;27;20677;-65
2022/05/03 12:26:33;;;;;;;7.23;4.80;;;18.00;52.30;;;;;;5130912;27;20214;-66
2022/05/03 12:29:01;;;;;;;6.77;5.57;;;17.70;48.90;;;;;;5131946;27;20245;-65
2022/05/03 12:31:30;;;;;;;6.53;5.23;;;17.50;43.50;;;;;;5131303;27;20223;-66
2022/05/03 12:33:58;;;;;;;6.13;4.60;;;17.50;46.90;;;;;;5132175;27;20215;-67
2022/05/03 12:36:34;;;;;;;10.13;4.93;;;17.90;49.10;;;;;;5131082;27;20203;-65
2022/05/03 12:39:15;;;;;;;8.77;5.20;;;18.20;52.00;;;;;;5131795;27;20210;-65
2022/05/03 12:41:44;;;;;;;7.73;5.37;;;18.40;50.70;;;;;;5131729;27;20205;-65
2022/05/03 12:44:13;;;;;;;6.03;4.30;;;18.40;54.60;;;;;;5131722;27;20209;-63
2022/05/03 12:46:41;;;;;;;7.37;4.87;;;18.40;54.40;;;;;;5131362;27;20203;-65
2022/05/03 12:49:11;;;;;;;7.80;4.53;;;18.50;49.70;;;;;;5131183;27;20264;-65
2022/05/03 12:51:40;;;;;;;6.80;4.90;;;18.40;44.70;;;;;;5131240;27;20237;-65
2022/05/03 12:54:08;;;;;;;5.40;4.13;;;18.30;47.80;;;;;;5131281;27;20299;-64
2022/05/03 12:59:22;;;;;;;10.93;5.27;;;18.10;45.60;;;;;;5130986;28;20193;-65
2022/05/03 13:01:50;;;;;;;5.27;4.70;;;18.10;47.20;;;;;;5130454;27;20289;-64
2022/05/03 13:04:17;;;;;;;7.43;5.03;;;18.00;44.60;;;;;;5130719;27;20329;-65
2022/05/03 13:06:44;;;;;;;6.83;5.30;;;18.00;46.00;;;;;;5130820;27;20211;-64
2022/05/03 13:09:11;;;;;;;6.13;4.47;;;17.80;37.50;;;;;;5131537;27;20264;-65
2022/05/03 13:11:39;;;;;;;6.70;4.73;;;18.00;42.20;;;;;;5131083;27;20661;-64
2022/05/03 13:14:06;;;;;;;5.63;4.33;;;17.90;39.50;;;;;;5132072;27;20294;-65
2022/05/03 13:16:34;;;;;;;5.30;4.00;;;18.10;45.80;;;;;;5134064;27;20635;-64
2022/05/03 13:19:01;;;;;;;4.63;4.07;;;18.30;44.70;;;;;;5135053;27;20214;-65
2022/05/03 13:21:28;;;;;;;5.47;4.07;;;18.50;49.80;;;;;;5135520;27;20642;-66
2022/05/03 13:23:55;;;;;;;4.83;3.60;;;18.60;49.20;;;;;;5135570;27;20199;-65
2022/05/03 13:26:22;;;;;;;4.93;3.80;;;18.80;54.10;;;;;;5134602;27;20206;-66
2022/05/03 13:28:50;;;;;;;5.90;4.40;;;19.20;56.80;;;;;;5134370;27;20665;-64
2022/05/03 13:31:17;;;;;;;5.63;4.10;;;19.40;60.90;;;;;;5134532;27;20264;-65
2022/05/03 13:33:45;;;;;;;5.80;4.10;;;19.50;59.10;;;;;;5134676;27;20202;-66
2022/05/03 13:41:40;;;;;;;7.97;4.67;;;19.10;54.70;;;;;;5134599;27;20320;-67
2022/05/03 13:44:07;;;;;;;7.17;3.97;;;19.00;49.60;;;;;;5134824;27;20210;-66
2022/05/03 13:46:34;;;;;;;6.13;4.20;;;18.90;50.70;;;;;;5134107;27;20275;-65
2022/05/03 13:49:03;;;;;;;5.33;3.57;;;18.90;51.40;;;;;;5135513;27;20267;-65